sensor_id;sensor_type;location;lat;lon;timestamp;pressure;altitude;pressure_sealevel;temperature;humidity
47080;BME280;33067;49.296;14.470;2022-12-31T00:00:59;96906.70;;;10.32;41.84
47080;BME280;33067;49.296;14.470;2022-12-31T00:03:23;96908.27;;;10.53;41.60
47080;BME280;33067;49.296;14.470;2022-12-31T00:05:48;96908.63;;;10.42;42.01
47080;BME280;33067;49.296;14.470;2022-12-31T00:08:13;96911.72;;;10.55;42.33
47080;BME280;33067;49.296;14.470;2022-12-31T00:10:39;96912.98;;;10.37;42.60
47080;BME280;33067;49.296;14.470;2022-12-31T00:13:04;96910.92;;;10.40;42.08
47080;BME280;33067;49.296;14.470;2022-12-31T00:15:29;96904.97;;;10.63;41.82
47080;BME280;33067;49.296;14.470;2022-12-31T00:17:54;96906.20;;;10.52;42.23
47080;BME280;33067;49.296;14.470;2022-12-31T00:20:19;96912.72;;;10.99;42.22
47080;BME280;33067;49.296;14.470;2022-12-31T00:22:45;96913.98;;;11.17;41.83
47080;BME280;33067;49.296;14.470;2022-12-31T00:25:10;96909.40;;;11.01;41.91
47080;BME280;33067;49.296;14.470;2022-12-31T00:27:35;96906.59;;;11.03;41.89
47080;BME280;33067;49.296;14.470;2022-12-31T00:30:01;96901.96;;;11.01;42.05
47080;BME280;33067;49.296;14.470;2022-12-31T00:32:27;96899.62;;;11.01;41.81
47080;BME280;33067;49.296;14.470;2022-12-31T00:34:51;96898.18;;;11.11;41.80
47080;BME280;33067;49.296;14.470;2022-12-31T00:37:16;96894.73;;;11.39;41.79
47080;BME280;33067;49.296;14.470;2022-12-31T00:39:42;96900.90;;;11.26;41.60
47080;BME280;33067;49.296;14.470;2022-12-31T00:42:07;96904.30;;;11.25;41.74
47080;BME280;33067;49.296;14.470;2022-12-31T00:44:33;96910.69;;;11.34;41.56
47080;BME280;33067;49.296;14.470;2022-12-31T00:46:58;96919.82;;;11.04;42.20
47080;BME280;33067;49.296;14.470;2022-12-31T00:49:24;96922.36;;;11.32;42.12
47080;BME280;33067;49.296;14.470;2022-12-31T00:51:49;96935.60;;;11.14;42.54
47080;BME280;33067;49.296;14.470;2022-12-31T00:54:15;96941.59;;;10.54;43.13
47080;BME280;33067;49.296;14.470;2022-12-31T00:56:40;96944.06;;;10.99;42.99
47080;BME280;33067;49.296;14.470;2022-12-31T00:59:06;96951.90;;;11.28;42.41
47080;BME280;33067;49.296;14.470;2022-12-31T01:01:34;96954.41;;;11.37;42.38
47080;BME280;33067;49.296;14.470;2022-12-31T01:03:58;96947.97;;;11.44;42.30
47080;BME280;33067;49.296;14.470;2022-12-31T01:06:22;96948.55;;;11.21;42.19
47080;BME280;33067;49.296;14.470;2022-12-31T01:08:48;96954.58;;;10.78;42.51
47080;BME280;33067;49.296;14.470;2022-12-31T01:11:12;96951.87;;;11.46;42.14
47080;BME280;33067;49.296;14.470;2022-12-31T01:13:38;96958.06;;;11.26;42.15
47080;BME280;33067;49.296;14.470;2022-12-31T01:16:08;96957.84;;;10.91;42.71
47080;BME280;33067;49.296;14.470;2022-12-31T01:18:29;96957.35;;;11.01;42.86
47080;BME280;33067;49.296;14.470;2022-12-31T01:20:54;96961.66;;;11.18;42.61
47080;BME280;33067;49.296;14.470;2022-12-31T01:23:19;96965.95;;;11.46;42.47
47080;BME280;33067;49.296;14.470;2022-12-31T01:25:45;96970.72;;;11.46;42.78
47080;BME280;33067;49.296;14.470;2022-12-31T01:28:10;96979.57;;;11.35;42.72
47080;BME280;33067;49.296;14.470;2022-12-31T01:30:38;96982.41;;;11.19;42.61
47080;BME280;33067;49.296;14.470;2022-12-31T01:33:00;96982.53;;;11.57;42.46
47080;BME280;33067;49.296;14.470;2022-12-31T01:35:26;96975.83;;;11.60;42.42
47080;BME280;33067;49.296;14.470;2022-12-31T01:37:51;96974.41;;;11.28;42.69
47080;BME280;33067;49.296;14.470;2022-12-31T01:40:16;96966.50;;;11.47;42.59
47080;BME280;33067;49.296;14.470;2022-12-31T01:42:41;96965.87;;;11.43;42.36
47080;BME280;33067;49.296;14.470;2022-12-31T01:45:11;96971.39;;;11.31;42.53
47080;BME280;33067;49.296;14.470;2022-12-31T01:47:36;96972.60;;;11.10;42.68
47080;BME280;33067;49.296;14.470;2022-12-31T01:50:04;96966.95;;;11.47;42.51
47080;BME280;33067;49.296;14.470;2022-12-31T01:52:27;96975.59;;;11.38;43.19
47080;BME280;33067;49.296;14.470;2022-12-31T01:54:50;96983.17;;;11.40;42.73
47080;BME280;33067;49.296;14.470;2022-12-31T01:57:16;96984.09;;;11.49;42.54
47080;BME280;33067;49.296;14.470;2022-12-31T01:59:40;96987.21;;;11.24;42.75
47080;BME280;33067;49.296;14.470;2022-12-31T02:02:05;96996.10;;;11.16;42.81
47080;BME280;33067;49.296;14.470;2022-12-31T02:04:30;96994.72;;;11.53;42.65
47080;BME280;33067;49.296;14.470;2022-12-31T02:06:59;96991.95;;;11.24;42.73
47080;BME280;33067;49.296;14.470;2022-12-31T02:09:21;96993.81;;;11.33;42.37
47080;BME280;33067;49.296;14.470;2022-12-31T02:11:47;96991.26;;;11.68;42.19
47080;BME280;33067;49.296;14.470;2022-12-31T02:14:14;96989.98;;;11.74;41.84
47080;BME280;33067;49.296;14.470;2022-12-31T02:16:44;96993.58;;;11.62;41.92
47080;BME280;33067;49.296;14.470;2022-12-31T02:21:36;96986.28;;;11.24;42.18
47080;BME280;33067;49.296;14.470;2022-12-31T02:24:03;96984.01;;;11.68;42.23
47080;BME280;33067;49.296;14.470;2022-12-31T02:26:33;96987.36;;;11.26;42.79
47080;BME280;33067;49.296;14.470;2022-12-31T02:29:00;96987.11;;;11.25;42.80
47080;BME280;33067;49.296;14.470;2022-12-31T02:31:13;96984.73;;;11.28;43.04
47080;BME280;33067;49.296;14.470;2022-12-31T02:33:41;96985.32;;;11.28;43.48
47080;BME280;33067;49.296;14.470;2022-12-31T02:36:03;96993.45;;;11.06;43.85
47080;BME280;33067;49.296;14.470;2022-12-31T02:38:27;96994.78;;;11.23;44.74
47080;BME280;33067;49.296;14.470;2022-12-31T02:40:52;96994.84;;;10.85;44.68
47080;BME280;33067;49.296;14.470;2022-12-31T02:43:16;96998.12;;;11.19;44.97
47080;BME280;33067;49.296;14.470;2022-12-31T02:45:46;97000.08;;;11.19;44.97
47080;BME280;33067;49.296;14.470;2022-12-31T02:48:20;97012.33;;;11.14;45.33
47080;BME280;33067;49.296;14.470;2022-12-31T02:50:38;97021.85;;;10.88;45.83
47080;BME280;33067;49.296;14.470;2022-12-31T02:53:06;97022.40;;;10.90;45.97
47080;BME280;33067;49.296;14.470;2022-12-31T02:55:29;97018.87;;;11.11;45.91
47080;BME280;33067;49.296;14.470;2022-12-31T02:57:55;97014.18;;;10.85;46.27
47080;BME280;33067;49.296;14.470;2022-12-31T03:00:15;97016.11;;;11.09;46.18
47080;BME280;33067;49.296;14.470;2022-12-31T03:02:41;97016.34;;;10.69;46.21
47080;BME280;33067;49.296;14.470;2022-12-31T03:05:07;97008.31;;;11.24;46.32
47080;BME280;33067;49.296;14.470;2022-12-31T03:07:31;97007.85;;;10.94;46.14
47080;BME280;33067;49.296;14.470;2022-12-31T03:09:55;97000.74;;;11.16;46.56
47080;BME280;33067;49.296;14.470;2022-12-31T03:13:01;96995.84;;;11.08;45.87
47080;BME280;33067;49.296;14.470;2022-12-31T03:15:27;97004.38;;;11.23;45.54
47080;BME280;33067;49.296;14.470;2022-12-31T03:17:54;97002.03;;;11.01;45.94
47080;BME280;33067;49.296;14.470;2022-12-31T03:20:18;97001.27;;;11.06;46.24
47080;BME280;33067;49.296;14.470;2022-12-31T03:22:43;97002.44;;;11.43;46.14
47080;BME280;33067;49.296;14.470;2022-12-31T03:25:11;97001.22;;;11.26;46.19
47080;BME280;33067;49.296;14.470;2022-12-31T03:27:32;97004.54;;;11.22;46.32
47080;BME280;33067;49.296;14.470;2022-12-31T03:29:58;97010.00;;;11.37;46.07
47080;BME280;33067;49.296;14.470;2022-12-31T03:32:23;97006.73;;;11.51;46.32
47080;BME280;33067;49.296;14.470;2022-12-31T03:34:49;97008.06;;;11.52;46.49
47080;BME280;33067;49.296;14.470;2022-12-31T03:37:14;97007.05;;;11.69;46.17
47080;BME280;33067;49.296;14.470;2022-12-31T03:39:40;97004.45;;;11.34;46.45
47080;BME280;33067;49.296;14.470;2022-12-31T03:42:05;97002.04;;;11.53;46.26
47080;BME280;33067;49.296;14.470;2022-12-31T03:44:30;97002.40;;;11.26;46.80
47080;BME280;33067;49.296;14.470;2022-12-31T03:46:56;97009.57;;;11.31;46.59
47080;BME280;33067;49.296;14.470;2022-12-31T03:49:20;97010.35;;;11.27;46.77
47080;BME280;33067;49.296;14.470;2022-12-31T03:51:46;97011.17;;;11.22;46.86
47080;BME280;33067;49.296;14.470;2022-12-31T03:54:11;97008.76;;;11.34;46.76
47080;BME280;33067;49.296;14.470;2022-12-31T03:56:36;97005.89;;;11.46;46.65
47080;BME280;33067;49.296;14.470;2022-12-31T03:59:02;97011.50;;;11.52;46.67
47080;BME280;33067;49.296;14.470;2022-12-31T04:01:27;97019.38;;;11.59;46.61
47080;BME280;33067;49.296;14.470;2022-12-31T04:03:52;97020.43;;;11.70;46.63
47080;BME280;33067;49.296;14.470;2022-12-31T04:06:18;97022.78;;;11.79;46.52
47080;BME280;33067;49.296;14.470;2022-12-31T04:08:43;97029.62;;;11.91;46.15
47080;BME280;33067;49.296;14.470;2022-12-31T04:11:09;97032.55;;;11.83;46.37
47080;BME280;33067;49.296;14.470;2022-12-31T04:13:34;97030.72;;;11.74;46.14
47080;BME280;33067;49.296;14.470;2022-12-31T04:15:59;97026.39;;;12.05;46.08
47080;BME280;33067;49.296;14.470;2022-12-31T04:18:24;97020.23;;;12.07;46.10
47080;BME280;33067;49.296;14.470;2022-12-31T04:20:50;97026.22;;;12.20;45.77
47080;BME280;33067;49.296;14.470;2022-12-31T04:23:15;97027.95;;;12.10;46.14
47080;BME280;33067;49.296;14.470;2022-12-31T04:25:40;97026.26;;;12.10;46.31
47080;BME280;33067;49.296;14.470;2022-12-31T04:28:05;97031.71;;;11.74;46.65
47080;BME280;33067;49.296;14.470;2022-12-31T04:30:31;97025.76;;;12.14;46.49
47080;BME280;33067;49.296;14.470;2022-12-31T04:32:56;97015.34;;;11.84;46.60
47080;BME280;33067;49.296;14.470;2022-12-31T04:35:21;97016.18;;;12.06;46.75
47080;BME280;33067;49.296;14.470;2022-12-31T04:37:48;97019.33;;;12.12;46.76
47080;BME280;33067;49.296;14.470;2022-12-31T04:40:12;97027.10;;;12.04;46.83
47080;BME280;33067;49.296;14.470;2022-12-31T04:42:37;97024.60;;;12.28;46.29
47080;BME280;33067;49.296;14.470;2022-12-31T04:45:03;97028.16;;;12.36;46.21
47080;BME280;33067;49.296;14.470;2022-12-31T04:47:30;97030.47;;;12.10;46.42
47080;BME280;33067;49.296;14.470;2022-12-31T04:49:53;97030.81;;;12.14;46.28
47080;BME280;33067;49.296;14.470;2022-12-31T04:52:18;97030.60;;;11.96;46.65
47080;BME280;33067;49.296;14.470;2022-12-31T04:54:44;97031.86;;;12.22;46.22
47080;BME280;33067;49.296;14.470;2022-12-31T04:57:09;97037.30;;;12.35;45.93
47080;BME280;33067;49.296;14.470;2022-12-31T04:59:34;97037.05;;;12.28;45.82
47080;BME280;33067;49.296;14.470;2022-12-31T05:02:01;97035.87;;;12.49;46.03
47080;BME280;33067;49.296;14.470;2022-12-31T05:04:25;97042.13;;;11.97;46.42
47080;BME280;33067;49.296;14.470;2022-12-31T05:06:50;97039.88;;;12.45;46.06
47080;BME280;33067;49.296;14.470;2022-12-31T05:09:16;97042.47;;;11.74;46.85
47080;BME280;33067;49.296;14.470;2022-12-31T05:11:41;97046.48;;;12.01;46.97
47080;BME280;33067;49.296;14.470;2022-12-31T05:14:07;97046.04;;;12.05;47.02
47080;BME280;33067;49.296;14.470;2022-12-31T05:16:32;97048.00;;;12.17;46.75
47080;BME280;33067;49.296;14.470;2022-12-31T05:18:57;97054.08;;;12.33;46.64
47080;BME280;33067;49.296;14.470;2022-12-31T05:21:23;97057.36;;;11.80;47.35
47080;BME280;33067;49.296;14.470;2022-12-31T05:23:48;97058.18;;;11.95;47.31
47080;BME280;33067;49.296;14.470;2022-12-31T05:26:13;97054.14;;;12.21;46.82
47080;BME280;33067;49.296;14.470;2022-12-31T05:28:39;97053.81;;;12.38;46.38
47080;BME280;33067;49.296;14.470;2022-12-31T05:31:04;97048.30;;;12.44;46.27
47080;BME280;33067;49.296;14.470;2022-12-31T05:33:29;97049.75;;;12.83;45.99
47080;BME280;33067;49.296;14.470;2022-12-31T05:35:55;97048.03;;;12.55;46.65
47080;BME280;33067;49.296;14.470;2022-12-31T05:38:20;97053.39;;;12.35;46.61
47080;BME280;33067;49.296;14.470;2022-12-31T05:40:45;97054.54;;;12.42;46.56
47080;BME280;33067;49.296;14.470;2022-12-31T05:43:10;97061.81;;;12.73;46.64
47080;BME280;33067;49.296;14.470;2022-12-31T05:45:36;97063.06;;;12.68;46.80
47080;BME280;33067;49.296;14.470;2022-12-31T05:48:01;97065.07;;;12.56;46.73
47080;BME280;33067;49.296;14.470;2022-12-31T05:50:27;97062.86;;;12.54;46.83
47080;BME280;33067;49.296;14.470;2022-12-31T05:52:52;97059.58;;;12.85;46.75
47080;BME280;33067;49.296;14.470;2022-12-31T05:55:17;97052.46;;;12.36;46.86
47080;BME280;33067;49.296;14.470;2022-12-31T05:57:42;97048.50;;;12.55;46.42
47080;BME280;33067;49.296;14.470;2022-12-31T06:00:09;97048.54;;;12.62;46.83
47080;BME280;33067;49.296;14.470;2022-12-31T06:02:33;97045.52;;;12.90;46.37
47080;BME280;33067;49.296;14.470;2022-12-31T06:04:58;97050.14;;;12.73;46.36
47080;BME280;33067;49.296;14.470;2022-12-31T06:07:23;97055.54;;;12.77;46.75
47080;BME280;33067;49.296;14.470;2022-12-31T06:09:48;97067.80;;;12.84;46.57
47080;BME280;33067;49.296;14.470;2022-12-31T06:12:14;97083.17;;;12.79;46.71
47080;BME280;33067;49.296;14.470;2022-12-31T06:14:39;97091.52;;;12.60;46.62
47080;BME280;33067;49.296;14.470;2022-12-31T06:17:05;97092.54;;;11.46;45.59
47080;BME280;33067;49.296;14.470;2022-12-31T06:19:30;97092.29;;;13.51;44.80
47080;BME280;33067;49.296;14.470;2022-12-31T06:21:55;97090.98;;;13.19;45.20
47080;BME280;33067;49.296;14.470;2022-12-31T06:24:20;97092.48;;;13.13;45.76
47080;BME280;33067;49.296;14.470;2022-12-31T06:26:45;97092.68;;;13.17;45.60
47080;BME280;33067;49.296;14.470;2022-12-31T06:29:11;97092.86;;;13.23;45.47
47080;BME280;33067;49.296;14.470;2022-12-31T06:31:36;97096.95;;;13.19;45.61
47080;BME280;33067;49.296;14.470;2022-12-31T06:34:02;97095.36;;;12.89;46.14
47080;BME280;33067;49.296;14.470;2022-12-31T06:36:26;97099.68;;;13.20;46.01
47080;BME280;33067;49.296;14.470;2022-12-31T06:38:52;97106.04;;;13.09;46.21
47080;BME280;33067;49.296;14.470;2022-12-31T06:41:17;97112.92;;;12.99;45.59
47080;BME280;33067;49.296;14.470;2022-12-31T06:43:42;97113.06;;;13.28;45.31
47080;BME280;33067;49.296;14.470;2022-12-31T06:46:09;97117.60;;;12.98;45.99
47080;BME280;33067;49.296;14.470;2022-12-31T06:48:33;97117.17;;;12.72;46.91
47080;BME280;33067;49.296;14.470;2022-12-31T06:51:04;97119.00;;;12.94;46.22
47080;BME280;33067;49.296;14.470;2022-12-31T06:53:23;97116.54;;;12.98;46.37
47080;BME280;33067;49.296;14.470;2022-12-31T06:55:49;97116.57;;;12.60;46.76
47080;BME280;33067;49.296;14.470;2022-12-31T06:58:15;97117.62;;;13.11;46.19
47080;BME280;33067;49.296;14.470;2022-12-31T07:00:41;97123.69;;;12.42;47.47
47080;BME280;33067;49.296;14.470;2022-12-31T07:03:17;97130.60;;;12.49;47.19
47080;BME280;33067;49.296;14.470;2022-12-31T07:05:43;97131.69;;;12.81;46.60
47080;BME280;33067;49.296;14.470;2022-12-31T07:08:06;97142.37;;;12.93;46.38
47080;BME280;33067;49.296;14.470;2022-12-31T07:10:28;97148.15;;;12.93;46.59
47080;BME280;33067;49.296;14.470;2022-12-31T07:12:58;97144.70;;;13.15;46.23
47080;BME280;33067;49.296;14.470;2022-12-31T07:15:15;97141.23;;;13.02;46.06
47080;BME280;33067;49.296;14.470;2022-12-31T07:17:43;97144.69;;;12.88;46.19
47080;BME280;33067;49.296;14.470;2022-12-31T07:20:08;97140.10;;;12.82;46.07
47080;BME280;33067;49.296;14.470;2022-12-31T07:22:27;97148.88;;;13.42;45.76
47080;BME280;33067;49.296;14.470;2022-12-31T07:24:53;97155.46;;;13.07;45.98
47080;BME280;33067;49.296;14.470;2022-12-31T07:27:35;97165.66;;;13.57;45.66
47080;BME280;33067;49.296;14.470;2022-12-31T07:29:55;97173.79;;;13.65;45.56
47080;BME280;33067;49.296;14.470;2022-12-31T07:32:20;97178.24;;;13.35;46.06
47080;BME280;33067;49.296;14.470;2022-12-31T07:34:41;97183.31;;;13.39;45.56
47080;BME280;33067;49.296;14.470;2022-12-31T07:37:06;97184.13;;;13.38;45.96
47080;BME280;33067;49.296;14.470;2022-12-31T07:39:34;97179.19;;;13.33;45.67
47080;BME280;33067;49.296;14.470;2022-12-31T07:41:57;97176.26;;;13.75;45.40
47080;BME280;33067;49.296;14.470;2022-12-31T07:44:31;97173.70;;;13.19;45.89
47080;BME280;33067;49.296;14.470;2022-12-31T07:46:49;97175.35;;;13.97;44.95
47080;BME280;33067;49.296;14.470;2022-12-31T07:49:11;97177.73;;;13.28;45.25
47080;BME280;33067;49.296;14.470;2022-12-31T07:51:33;97174.91;;;13.80;45.20
47080;BME280;33067;49.296;14.470;2022-12-31T07:53:58;97173.28;;;13.66;45.05
47080;BME280;33067;49.296;14.470;2022-12-31T07:56:23;97177.99;;;13.35;45.22
47080;BME280;33067;49.296;14.470;2022-12-31T07:59:03;97185.35;;;13.52;45.33
47080;BME280;33067;49.296;14.470;2022-12-31T08:01:27;97191.76;;;13.73;45.11
47080;BME280;33067;49.296;14.470;2022-12-31T08:03:46;97193.84;;;13.63;44.84
47080;BME280;33067;49.296;14.470;2022-12-31T08:06:13;97194.56;;;14.01;44.93
47080;BME280;33067;49.296;14.470;2022-12-31T08:08:37;97186.93;;;13.70;44.72
47080;BME280;33067;49.296;14.470;2022-12-31T08:11:05;97193.25;;;14.19;44.86
47080;BME280;33067;49.296;14.470;2022-12-31T08:13:22;97196.47;;;13.89;44.58
47080;BME280;33067;49.296;14.470;2022-12-31T08:15:48;97200.72;;;14.25;44.39
47080;BME280;33067;49.296;14.470;2022-12-31T08:18:13;97198.41;;;14.13;44.28
47080;BME280;33067;49.296;14.470;2022-12-31T08:20:44;97204.37;;;14.08;44.47
47080;BME280;33067;49.296;14.470;2022-12-31T08:23:15;97207.95;;;14.36;44.02
47080;BME280;33067;49.296;14.470;2022-12-31T08:25:35;97213.00;;;14.06;44.20
47080;BME280;33067;49.296;14.470;2022-12-31T08:28:04;97213.70;;;14.51;43.94
47080;BME280;33067;49.296;14.470;2022-12-31T08:30:21;97212.65;;;14.60;43.83
47080;BME280;33067;49.296;14.470;2022-12-31T08:33:03;97211.17;;;14.73;43.55
47080;BME280;33067;49.296;14.470;2022-12-31T08:35:24;97214.09;;;14.90;43.28
47080;BME280;33067;49.296;14.470;2022-12-31T08:37:38;97209.14;;;14.49;43.96
47080;BME280;33067;49.296;14.470;2022-12-31T08:40:14;97206.48;;;14.52;43.63
47080;BME280;33067;49.296;14.470;2022-12-31T08:42:33;97205.59;;;14.46;43.75
47080;BME280;33067;49.296;14.470;2022-12-31T08:44:58;97205.37;;;14.77;43.65
47080;BME280;33067;49.296;14.470;2022-12-31T08:47:24;97199.65;;;14.32;43.73
47080;BME280;33067;49.296;14.470;2022-12-31T08:49:42;97200.51;;;14.92;43.54
47080;BME280;33067;49.296;14.470;2022-12-31T08:52:18;97200.96;;;14.71;43.47
47080;BME280;33067;49.296;14.470;2022-12-31T08:54:33;97206.41;;;14.86;43.27
47080;BME280;33067;49.296;14.470;2022-12-31T08:57:03;97207.32;;;14.91;43.15
47080;BME280;33067;49.296;14.470;2022-12-31T08:59:34;97208.63;;;15.19;43.17
47080;BME280;33067;49.296;14.470;2022-12-31T09:02:00;97212.72;;;14.61;43.37
47080;BME280;33067;49.296;14.470;2022-12-31T09:04:19;97210.57;;;15.21;42.85
47080;BME280;33067;49.296;14.470;2022-12-31T09:06:47;97211.95;;;14.95;43.16
47080;BME280;33067;49.296;14.470;2022-12-31T09:09:11;97215.26;;;15.22;42.95
47080;BME280;33067;49.296;14.470;2022-12-31T09:11:42;97220.08;;;14.61;43.63
47080;BME280;33067;49.296;14.470;2022-12-31T09:14:07;97222.86;;;15.04;43.22
47080;BME280;33067;49.296;14.470;2022-12-31T09:16:26;97224.19;;;15.02;43.41
47080;BME280;33067;49.296;14.470;2022-12-31T09:18:47;97226.19;;;15.32;42.94
47080;BME280;33067;49.296;14.470;2022-12-31T09:21:14;97225.81;;;15.36;43.05
47080;BME280;33067;49.296;14.470;2022-12-31T09:23:38;97222.63;;;14.80;43.55
47080;BME280;33067;49.296;14.470;2022-12-31T09:26:12;97225.37;;;15.08;43.17
47080;BME280;33067;49.296;14.470;2022-12-31T09:28:41;97224.61;;;15.10;43.19
47080;BME280;33067;49.296;14.470;2022-12-31T09:31:01;97222.59;;;15.18;43.07
47080;BME280;33067;49.296;14.470;2022-12-31T09:33:29;97223.98;;;15.54;42.58
47080;BME280;33067;49.296;14.470;2022-12-31T09:35:50;97232.81;;;15.68;42.88
47080;BME280;33067;49.296;14.470;2022-12-31T09:38:15;97235.43;;;15.48;42.80
47080;BME280;33067;49.296;14.470;2022-12-31T09:40:47;97239.16;;;15.80;42.78
47080;BME280;33067;49.296;14.470;2022-12-31T09:48:05;97240.89;;;15.35;42.46
47080;BME280;33067;49.296;14.470;2022-12-31T09:52:50;97232.30;;;15.94;42.32
47080;BME280;33067;49.296;14.470;2022-12-31T09:57:39;97224.76;;;15.65;42.48
47080;BME280;33067;49.296;14.470;2022-12-31T10:00:02;97225.37;;;15.92;42.46
47080;BME280;33067;49.296;14.470;2022-12-31T10:04:56;97220.20;;;16.25;41.66
47080;BME280;33067;49.296;14.470;2022-12-31T10:07:25;97223.08;;;15.97;42.04
47080;BME280;33067;49.296;14.470;2022-12-31T10:09:47;97220.98;;;16.25;41.60
47080;BME280;33067;49.296;14.470;2022-12-31T10:14:41;97216.68;;;16.10;41.74
47080;BME280;33067;49.296;14.470;2022-12-31T10:17:04;97217.52;;;15.84;41.95
47080;BME280;33067;49.296;14.470;2022-12-31T10:21:53;97217.46;;;16.61;41.07
47080;BME280;33067;49.296;14.470;2022-12-31T10:24:26;97215.72;;;15.96;41.76
47080;BME280;33067;49.296;14.470;2022-12-31T10:29:22;97211.41;;;16.25;41.33
47080;BME280;33067;49.296;14.470;2022-12-31T10:31:33;97214.11;;;16.39;41.42
47080;BME280;33067;49.296;14.470;2022-12-31T10:33:59;97209.74;;;16.31;41.34
47080;BME280;33067;49.296;14.470;2022-12-31T10:36:19;97211.33;;;16.40;41.23
47080;BME280;33067;49.296;14.470;2022-12-31T10:38:52;97205.73;;;16.64;40.93
47080;BME280;33067;49.296;14.470;2022-12-31T10:55:59;97197.87;;;16.86;40.53
47080;BME280;33067;49.296;14.470;2022-12-31T11:00:30;97198.96;;;17.11;40.22
47080;BME280;33067;49.296;14.470;2022-12-31T11:07:55;97193.31;;;17.25;39.77
47080;BME280;33067;49.296;14.470;2022-12-31T11:12:50;97192.08;;;17.02;39.77
47080;BME280;33067;49.296;14.470;2022-12-31T11:15:16;97190.05;;;17.32;39.43
47080;BME280;33067;49.296;14.470;2022-12-31T11:17:35;97187.07;;;17.08;39.33
47080;BME280;33067;49.296;14.470;2022-12-31T11:19:58;97188.51;;;17.26;39.19
47080;BME280;33067;49.296;14.470;2022-12-31T11:22:25;97188.90;;;17.51;39.06
47080;BME280;33067;49.296;14.470;2022-12-31T11:27:16;97181.85;;;17.65;38.62
47080;BME280;33067;49.296;14.470;2022-12-31T11:32:04;97180.73;;;17.45;38.55
47080;BME280;33067;49.296;14.470;2022-12-31T11:36:58;97185.32;;;17.19;38.36
47080;BME280;33067;49.296;14.470;2022-12-31T11:39:32;97184.12;;;17.82;38.06
47080;BME280;33067;49.296;14.470;2022-12-31T11:41:42;97178.28;;;17.73;38.32
47080;BME280;33067;49.296;14.470;2022-12-31T11:44:11;97178.79;;;17.91;38.01
47080;BME280;33067;49.296;14.470;2022-12-31T11:46:42;97178.85;;;17.68;38.12
47080;BME280;33067;49.296;14.470;2022-12-31T11:49:03;97185.53;;;17.82;38.15
47080;BME280;33067;49.296;14.470;2022-12-31T11:53:53;97184.21;;;17.67;38.20
47080;BME280;33067;49.296;14.470;2022-12-31T11:56:15;97189.08;;;18.07;38.07
47080;BME280;33067;49.296;14.470;2022-12-31T11:58:34;97194.49;;;17.63;38.08
47080;BME280;33067;49.296;14.470;2022-12-31T12:01:02;97195.95;;;17.92;37.77
47080;BME280;33067;49.296;14.470;2022-12-31T12:03:23;97194.17;;;17.77;37.69
47080;BME280;33067;49.296;14.470;2022-12-31T12:05:48;97197.54;;;17.84;37.78
47080;BME280;33067;49.296;14.470;2022-12-31T12:08:14;97192.28;;;17.80;37.75
47080;BME280;33067;49.296;14.470;2022-12-31T12:10:42;97187.82;;;17.51;37.65
47080;BME280;33067;49.296;14.470;2022-12-31T12:13:10;97187.69;;;17.86;37.71
47080;BME280;33067;49.296;14.470;2022-12-31T12:15:33;97188.26;;;17.87;37.65
47080;BME280;33067;49.296;14.470;2022-12-31T12:17:56;97185.66;;;17.90;37.61
47080;BME280;33067;49.296;14.470;2022-12-31T12:20:28;97182.63;;;17.95;37.53
47080;BME280;33067;49.296;14.470;2022-12-31T12:22:49;97176.07;;;17.76;37.19
47080;BME280;33067;49.296;14.470;2022-12-31T12:25:18;97170.82;;;17.88;37.07
47080;BME280;33067;49.296;14.470;2022-12-31T12:27:35;97178.88;;;17.85;37.31
47080;BME280;33067;49.296;14.470;2022-12-31T12:30:10;97178.86;;;18.20;37.13
47080;BME280;33067;49.296;14.470;2022-12-31T12:32:26;97180.08;;;18.13;37.33
47080;BME280;33067;49.296;14.470;2022-12-31T12:34:54;97177.59;;;18.20;37.12
47080;BME280;33067;49.296;14.470;2022-12-31T12:37:27;97174.52;;;18.29;37.19
47080;BME280;33067;49.296;14.470;2022-12-31T12:39:43;97162.65;;;18.26;36.79
47080;BME280;33067;49.296;14.470;2022-12-31T12:42:12;97165.14;;;18.55;36.73
47080;BME280;33067;49.296;14.470;2022-12-31T12:44:34;97171.87;;;18.23;36.40
47080;BME280;33067;49.296;14.470;2022-12-31T12:47:01;97169.64;;;18.31;36.46
47080;BME280;33067;49.296;14.470;2022-12-31T12:49:28;97162.90;;;18.07;36.72
47080;BME280;33067;49.296;14.470;2022-12-31T12:52:13;97166.72;;;18.68;36.37
47080;BME280;33067;49.296;14.470;2022-12-31T12:54:27;97156.56;;;18.17;36.38
47080;BME280;33067;49.296;14.470;2022-12-31T12:56:47;97154.41;;;18.43;36.39
47080;BME280;33067;49.296;14.470;2022-12-31T12:59:21;97159.70;;;17.82;36.79
47080;BME280;33067;49.296;14.470;2022-12-31T13:01:36;97165.14;;;18.30;36.73
47080;BME280;33067;49.296;14.470;2022-12-31T13:04:14;97167.56;;;18.36;36.20
47080;BME280;33067;49.296;14.470;2022-12-31T13:06:30;97167.81;;;18.09;36.51
47080;BME280;33067;49.296;14.470;2022-12-31T13:09:02;97163.84;;;18.41;36.21
47080;BME280;33067;49.296;14.470;2022-12-31T13:11:25;97167.86;;;18.43;36.00
47080;BME280;33067;49.296;14.470;2022-12-31T13:13:43;97168.17;;;18.35;35.96
47080;BME280;33067;49.296;14.470;2022-12-31T13:16:06;97169.40;;;18.81;36.00
47080;BME280;33067;49.296;14.470;2022-12-31T13:18:37;97166.11;;;17.98;36.27
47080;BME280;33067;49.296;14.470;2022-12-31T13:20:58;97168.44;;;18.69;36.16
47080;BME280;33067;49.296;14.470;2022-12-31T13:23:21;97164.00;;;18.46;36.17
47080;BME280;33067;49.296;14.470;2022-12-31T13:25:54;97165.30;;;18.25;36.25
47080;BME280;33067;49.296;14.470;2022-12-31T13:28:10;97162.98;;;18.29;36.08
47080;BME280;33067;49.296;14.470;2022-12-31T13:30:36;97170.90;;;18.22;36.25
47080;BME280;33067;49.296;14.470;2022-12-31T13:33:01;97171.44;;;18.74;36.09
47080;BME280;33067;49.296;14.470;2022-12-31T13:35:26;97170.27;;;18.30;36.07